sensor_id;sensor_type;location;lat;lon;timestamp;pressure;altitude;pressure_sealevel;temperature;humidity
17635;BME280;8936;49.010;12.120;2023-01-29T00:01:29;98965.34;;;1.75;100.00
17635;BME280;8936;49.010;12.120;2023-01-29T00:03:55;98961.31;;;1.50;100.00
17635;BME280;8936;49.010;12.120;2023-01-29T00:06:23;98960.38;;;1.43;100.00
17635;BME280;8936;49.010;12.120;2023-01-29T00:08:49;98967.75;;;1.47;100.00
17635;BME280;8936;49.010;12.120;2023-01-29T00:11:16;98968.59;;;1.77;100.00
17635;BME280;8936;49.010;12.120;2023-01-29T00:13:44;98968.16;;;1.88;100.00
17635;BME280;8936;49.010;12.120;2023-01-29T00:16:10;98982.84;;;2.12;100.00
17635;BME280;8936;49.010;12.120;2023-01-29T00:18:37;98976.94;;;2.25;100.00
17635;BME280;8936;49.010;12.120;2023-01-29T00:21:07;98968.50;;;2.14;100.00
17635;BME280;8936;49.010;12.120;2023-01-29T00:23:34;98978.22;;;2.29;100.00
17635;BME280;8936;49.010;12.120;2023-01-29T00:26:01;98958.66;;;2.23;100.00
17635;BME280;8936;49.010;12.120;2023-01-29T00:28:27;98953.69;;;2.13;100.00
17635;BME280;8936;49.010;12.120;2023-01-29T00:30:53;98972.50;;;1.67;100.00
17635;BME280;8936;49.010;12.120;2023-01-29T00:33:20;98971.94;;;1.42;100.00
17635;BME280;8936;49.010;12.120;2023-01-29T00:35:46;98974.63;;;1.34;100.00
17635;BME280;8936;49.010;12.120;2023-01-29T00:38:13;98966.53;;;1.21;100.00
17635;BME280;8936;49.010;12.120;2023-01-29T00:40:41;98972.56;;;1.44;100.00
17635;BME280;8936;49.010;12.120;2023-01-29T00:43:25;98977.72;;;1.15;100.00
17635;BME280;8936;49.010;12.120;2023-01-29T00:46:08;98973.34;;;1.30;100.00
17635;BME280;8936;49.010;12.120;2023-01-29T00:48:35;98972.81;;;1.12;100.00
17635;BME280;8936;49.010;12.120;2023-01-29T00:51:01;98970.63;;;1.00;100.00
17635;BME280;8936;49.010;12.120;2023-01-29T00:53:28;98972.44;;;1.00;100.00
17635;BME280;8936;49.010;12.120;2023-01-29T00:55:56;98964.69;;;1.21;100.00
17635;BME280;8936;49.010;12.120;2023-01-29T00:58:22;98962.22;;;1.42;100.00
17635;BME280;8936;49.010;12.120;2023-01-29T01:00:52;98946.94;;;1.38;100.00
17635;BME280;8936;49.010;12.120;2023-01-29T01:03:19;98950.06;;;1.41;100.00
17635;BME280;8936;49.010;12.120;2023-01-29T01:05:44;98948.50;;;1.47;100.00
17635;BME280;8936;49.010;12.120;2023-01-29T01:08:10;98944.22;;;1.31;100.00
17635;BME280;8936;49.010;12.120;2023-01-29T01:10:58;98948.34;;;1.11;100.00
17635;BME280;8936;49.010;12.120;2023-01-29T01:13:24;98954.97;;;1.59;100.00
17635;BME280;8936;49.010;12.120;2023-01-29T01:15:51;98950.16;;;1.62;100.00
17635;BME280;8936;49.010;12.120;2023-01-29T01:18:17;98956.25;;;1.63;100.00
17635;BME280;8936;49.010;12.120;2023-01-29T01:20:46;98943.44;;;1.45;100.00
17635;BME280;8936;49.010;12.120;2023-01-29T01:23:15;98948.78;;;1.15;100.00
17635;BME280;8936;49.010;12.120;2023-01-29T01:25:42;98954.91;;;0.92;100.00
17635;BME280;8936;49.010;12.120;2023-01-29T01:28:09;98960.56;;;0.81;100.00
17635;BME280;8936;49.010;12.120;2023-01-29T01:30:36;98953.06;;;1.16;100.00
17635;BME280;8936;49.010;12.120;2023-01-29T01:33:03;98951.38;;;1.23;100.00
17635;BME280;8936;49.010;12.120;2023-01-29T01:35:29;98944.34;;;1.82;100.00
17635;BME280;8936;49.010;12.120;2023-01-29T01:37:56;98942.97;;;1.42;100.00
17635;BME280;8936;49.010;12.120;2023-01-29T01:40:23;98945.91;;;1.24;100.00
17635;BME280;8936;49.010;12.120;2023-01-29T01:42:50;98942.63;;;1.59;100.00
17635;BME280;8936;49.010;12.120;2023-01-29T01:45:20;98937.16;;;1.90;100.00
17635;BME280;8936;49.010;12.120;2023-01-29T01:47:48;98927.47;;;1.91;100.00
17635;BME280;8936;49.010;12.120;2023-01-29T01:50:17;98925.78;;;2.04;100.00
17635;BME280;8936;49.010;12.120;2023-01-29T01:52:45;98930.06;;;2.05;100.00
17635;BME280;8936;49.010;12.120;2023-01-29T01:55:14;98919.53;;;2.05;100.00
17635;BME280;8936;49.010;12.120;2023-01-29T01:57:42;98925.72;;;2.12;100.00
17635;BME280;8936;49.010;12.120;2023-01-29T02:00:12;98923.59;;;2.08;100.00
17635;BME280;8936;49.010;12.120;2023-01-29T02:02:41;98917.88;;;2.04;100.00
17635;BME280;8936;49.010;12.120;2023-01-29T02:05:27;98920.44;;;2.12;100.00
17635;BME280;8936;49.010;12.120;2023-01-29T02:08:11;98918.06;;;2.17;100.00
17635;BME280;8936;49.010;12.120;2023-01-29T02:10:56;98917.84;;;2.34;100.00
17635;BME280;8936;49.010;12.120;2023-01-29T02:13:23;98917.59;;;2.14;100.00
17635;BME280;8936;49.010;12.120;2023-01-29T02:15:49;98931.06;;;2.04;100.00
17635;BME280;8936;49.010;12.120;2023-01-29T02:18:17;98931.97;;;2.11;100.00
17635;BME280;8936;49.010;12.120;2023-01-29T02:20:47;98933.19;;;1.94;100.00
17635;BME280;8936;49.010;12.120;2023-01-29T02:23:18;98937.09;;;1.69;100.00
17635;BME280;8936;49.010;12.120;2023-01-29T02:26:08;98941.16;;;1.57;100.00
17635;BME280;8936;49.010;12.120;2023-01-29T02:28:41;98941.38;;;1.70;100.00
17635;BME280;8936;49.010;12.120;2023-01-29T02:31:14;98947.63;;;1.54;100.00
17635;BME280;8936;49.010;12.120;2023-01-29T02:33:47;98948.25;;;1.42;100.00
17635;BME280;8936;49.010;12.120;2023-01-29T02:36:18;98941.97;;;1.87;100.00
17635;BME280;8936;49.010;12.120;2023-01-29T02:38:49;98937.91;;;2.13;100.00
17635;BME280;8936;49.010;12.120;2023-01-29T02:41:22;98947.22;;;2.31;100.00
17635;BME280;8936;49.010;12.120;2023-01-29T02:43:53;98943.78;;;2.15;100.00
17635;BME280;8936;49.010;12.120;2023-01-29T02:46:22;98951.41;;;2.25;100.00
17635;BME280;8936;49.010;12.120;2023-01-29T02:48:56;98942.13;;;2.14;100.00
17635;BME280;8936;49.010;12.120;2023-01-29T02:51:25;98939.88;;;2.11;100.00
17635;BME280;8936;49.010;12.120;2023-01-29T02:53:56;98944.59;;;2.01;100.00
17635;BME280;8936;49.010;12.120;2023-01-29T02:56:26;98933.69;;;2.04;100.00
17635;BME280;8936;49.010;12.120;2023-01-29T02:58:57;98944.41;;;2.17;100.00
17635;BME280;8936;49.010;12.120;2023-01-29T03:01:26;98948.44;;;2.13;100.00
17635;BME280;8936;49.010;12.120;2023-01-29T03:03:55;98943.88;;;2.07;100.00
17635;BME280;8936;49.010;12.120;2023-01-29T03:06:24;98936.06;;;1.99;100.00
17635;BME280;8936;49.010;12.120;2023-01-29T03:08:53;98929.78;;;2.15;100.00
17635;BME280;8936;49.010;12.120;2023-01-29T03:11:21;98932.97;;;2.10;100.00
17635;BME280;8936;49.010;12.120;2023-01-29T03:13:48;98929.44;;;1.74;100.00
17635;BME280;8936;49.010;12.120;2023-01-29T03:16:20;98937.28;;;1.82;100.00
17635;BME280;8936;49.010;12.120;2023-01-29T03:18:49;98937.97;;;2.05;100.00
17635;BME280;8936;49.010;12.120;2023-01-29T03:21:18;98939.13;;;2.17;100.00
17635;BME280;8936;49.010;12.120;2023-01-29T03:24:04;98932.53;;;2.43;100.00
17635;BME280;8936;49.010;12.120;2023-01-29T03:26:49;98928.63;;;2.53;100.00
17635;BME280;8936;49.010;12.120;2023-01-29T03:29:33;98927.72;;;2.46;100.00
17635;BME280;8936;49.010;12.120;2023-01-29T03:32:20;98929.63;;;2.02;100.00
17635;BME280;8936;49.010;12.120;2023-01-29T03:34:50;98934.91;;;1.73;100.00
17635;BME280;8936;49.010;12.120;2023-01-29T03:37:19;98936.28;;;1.98;100.00
17635;BME280;8936;49.010;12.120;2023-01-29T03:39:46;98930.91;;;1.91;100.00
17635;BME280;8936;49.010;12.120;2023-01-29T03:42:15;98931.38;;;1.95;100.00
17635;BME280;8936;49.010;12.120;2023-01-29T03:44:46;98948.59;;;1.83;100.00
17635;BME280;8936;49.010;12.120;2023-01-29T03:47:16;98940.72;;;1.68;100.00
17635;BME280;8936;49.010;12.120;2023-01-29T03:49:46;98947.63;;;1.54;100.00
17635;BME280;8936;49.010;12.120;2023-01-29T03:52:19;98945.78;;;1.40;100.00
17635;BME280;8936;49.010;12.120;2023-01-29T03:54:49;98956.16;;;1.56;100.00
17635;BME280;8936;49.010;12.120;2023-01-29T03:57:21;98961.41;;;1.86;100.00
17635;BME280;8936;49.010;12.120;2023-01-29T03:59:52;98955.78;;;1.74;100.00
17635;BME280;8936;49.010;12.120;2023-01-29T04:02:21;98965.75;;;1.64;100.00
17635;BME280;8936;49.010;12.120;2023-01-29T04:04:53;98968.50;;;1.71;100.00
17635;BME280;8936;49.010;12.120;2023-01-29T04:07:22;98958.88;;;1.63;100.00
17635;BME280;8936;49.010;12.120;2023-01-29T04:09:50;98962.50;;;1.62;100.00
17635;BME280;8936;49.010;12.120;2023-01-29T04:12:20;98951.50;;;1.58;100.00
17635;BME280;8936;49.010;12.120;2023-01-29T04:14:50;98938.69;;;1.41;100.00
17635;BME280;8936;49.010;12.120;2023-01-29T04:17:20;98950.56;;;1.37;100.00
17635;BME280;8936;49.010;12.120;2023-01-29T04:19:48;98947.41;;;1.27;100.00
17635;BME280;8936;49.010;12.120;2023-01-29T04:22:17;98945.50;;;1.50;100.00
17635;BME280;8936;49.010;12.120;2023-01-29T04:24:44;98945.88;;;1.47;100.00
17635;BME280;8936;49.010;12.120;2023-01-29T04:27:20;98946.06;;;1.45;100.00
17635;BME280;8936;49.010;12.120;2023-01-29T04:29:50;98953.31;;;1.06;100.00
17635;BME280;8936;49.010;12.120;2023-01-29T04:32:20;98958.09;;;1.40;100.00
17635;BME280;8936;49.010;12.120;2023-01-29T04:34:55;98959.13;;;1.39;100.00
17635;BME280;8936;49.010;12.120;2023-01-29T04:37:28;98956.13;;;1.42;100.00
17635;BME280;8936;49.010;12.120;2023-01-29T04:39:58;98966.25;;;1.30;100.00
17635;BME280;8936;49.010;12.120;2023-01-29T04:42:28;98965.25;;;1.17;100.00
17635;BME280;8936;49.010;12.120;2023-01-29T04:44:57;98962.47;;;1.33;100.00
17635;BME280;8936;49.010;12.120;2023-01-29T04:47:27;98950.75;;;1.21;100.00
17635;BME280;8936;49.010;12.120;2023-01-29T04:49:59;98957.47;;;1.38;100.00
17635;BME280;8936;49.010;12.120;2023-01-29T04:52:30;98953.41;;;1.35;100.00
17635;BME280;8936;49.010;12.120;2023-01-29T04:54:59;98952.78;;;1.48;100.00
17635;BME280;8936;49.010;12.120;2023-01-29T04:57:30;98952.56;;;1.35;100.00
17635;BME280;8936;49.010;12.120;2023-01-29T05:00:00;98955.78;;;1.59;100.00
17635;BME280;8936;49.010;12.120;2023-01-29T05:02:28;98956.84;;;1.36;100.00
17635;BME280;8936;49.010;12.120;2023-01-29T05:04:55;98951.19;;;1.24;100.00
17635;BME280;8936;49.010;12.120;2023-01-29T05:07:23;98953.25;;;1.51;100.00
17635;BME280;8936;49.010;12.120;2023-01-29T05:09:53;98953.72;;;1.84;100.00
17635;BME280;8936;49.010;12.120;2023-01-29T05:12:19;98954.69;;;1.83;100.00
17635;BME280;8936;49.010;12.120;2023-01-29T05:14:47;98948.81;;;1.81;100.00
17635;BME280;8936;49.010;12.120;2023-01-29T05:17:15;98947.97;;;1.95;100.00
17635;BME280;8936;49.010;12.120;2023-01-29T05:19:43;98946.69;;;2.21;100.00
17635;BME280;8936;49.010;12.120;2023-01-29T05:22:10;98928.47;;;2.40;100.00
17635;BME280;8936;49.010;12.120;2023-01-29T05:24:37;98933.88;;;2.53;100.00
17635;BME280;8936;49.010;12.120;2023-01-29T05:27:05;98926.59;;;2.55;100.00
17635;BME280;8936;49.010;12.120;2023-01-29T05:29:49;98937.00;;;2.63;100.00
17635;BME280;8936;49.010;12.120;2023-01-29T05:32:15;98932.94;;;2.61;100.00
17635;BME280;8936;49.010;12.120;2023-01-29T05:34:41;98938.88;;;2.63;100.00
17635;BME280;8936;49.010;12.120;2023-01-29T05:37:08;98938.66;;;2.64;100.00
17635;BME280;8936;49.010;12.120;2023-01-29T05:39:34;98931.75;;;2.63;100.00
17635;BME280;8936;49.010;12.120;2023-01-29T05:42:01;98933.38;;;2.64;100.00
17635;BME280;8936;49.010;12.120;2023-01-29T05:44:29;98937.59;;;2.59;100.00
17635;BME280;8936;49.010;12.120;2023-01-29T05:46:55;98932.69;;;2.56;100.00
17635;BME280;8936;49.010;12.120;2023-01-29T05:49:21;98932.69;;;2.56;100.00
17635;BME280;8936;49.010;12.120;2023-01-29T05:51:47;98934.75;;;2.60;100.00
17635;BME280;8936;49.010;12.120;2023-01-29T05:54:14;98953.09;;;2.33;100.00
17635;BME280;8936;49.010;12.120;2023-01-29T05:56:40;98950.78;;;2.08;100.00
17635;BME280;8936;49.010;12.120;2023-01-29T05:59:06;98949.78;;;1.80;100.00
17635;BME280;8936;49.010;12.120;2023-01-29T06:01:34;98945.06;;;1.90;100.00
17635;BME280;8936;49.010;12.120;2023-01-29T06:04:00;98949.69;;;2.17;100.00
17635;BME280;8936;49.010;12.120;2023-01-29T06:06:27;98951.50;;;2.32;100.00
17635;BME280;8936;49.010;12.120;2023-01-29T06:08:54;98944.56;;;2.31;100.00
17635;BME280;8936;49.010;12.120;2023-01-29T06:11:20;98933.13;;;2.24;100.00
17635;BME280;8936;49.010;12.120;2023-01-29T06:13:47;98930.25;;;2.18;100.00
17635;BME280;8936;49.010;12.120;2023-01-29T06:16:13;98934.53;;;2.20;100.00
17635;BME280;8936;49.010;12.120;2023-01-29T06:18:41;98931.56;;;2.29;100.00
17635;BME280;8936;49.010;12.120;2023-01-29T06:21:08;98921.19;;;2.42;100.00
17635;BME280;8936;49.010;12.120;2023-01-29T06:23:35;98912.44;;;2.42;100.00
17635;BME280;8936;49.010;12.120;2023-01-29T06:26:03;98917.25;;;2.53;100.00
17635;BME280;8936;49.010;12.120;2023-01-29T06:28:29;98907.53;;;2.53;100.00
17635;BME280;8936;49.010;12.120;2023-01-29T06:30:56;98908.91;;;2.13;100.00
17635;BME280;8936;49.010;12.120;2023-01-29T06:33:23;98907.44;;;2.26;100.00
17635;BME280;8936;49.010;12.120;2023-01-29T06:35:55;98904.91;;;2.39;100.00
17635;BME280;8936;49.010;12.120;2023-01-29T06:38:22;98879.44;;;2.46;100.00
17635;BME280;8936;49.010;12.120;2023-01-29T06:40:48;98894.50;;;2.52;100.00
17635;BME280;8936;49.010;12.120;2023-01-29T06:43:14;98902.28;;;2.39;100.00
17635;BME280;8936;49.010;12.120;2023-01-29T06:45:45;98896.75;;;2.34;100.00
17635;BME280;8936;49.010;12.120;2023-01-29T06:48:11;98905.91;;;2.16;100.00
17635;BME280;8936;49.010;12.120;2023-01-29T06:50:37;98902.84;;;2.34;100.00
17635;BME280;8936;49.010;12.120;2023-01-29T06:53:05;98909.06;;;2.48;100.00
17635;BME280;8936;49.010;12.120;2023-01-29T06:55:31;98912.22;;;2.58;100.00
17635;BME280;8936;49.010;12.120;2023-01-29T06:57:57;98918.19;;;2.66;100.00
17635;BME280;8936;49.010;12.120;2023-01-29T07:00:24;98926.75;;;2.68;100.00
17635;BME280;8936;49.010;12.120;2023-01-29T07:02:50;98921.75;;;2.38;100.00
17635;BME280;8936;49.010;12.120;2023-01-29T07:05:16;98926.34;;;2.00;100.00
17635;BME280;8936;49.010;12.120;2023-01-29T07:07:43;98929.91;;;1.92;100.00
17635;BME280;8936;49.010;12.120;2023-01-29T07:10:11;98938.28;;;1.67;100.00
17635;BME280;8936;49.010;12.120;2023-01-29T07:12:37;98940.53;;;1.70;100.00
17635;BME280;8936;49.010;12.120;2023-01-29T07:15:04;98942.25;;;2.06;100.00
17635;BME280;8936;49.010;12.120;2023-01-29T07:17:30;98938.41;;;2.24;100.00
17635;BME280;8936;49.010;12.120;2023-01-29T07:19:56;98946.69;;;2.21;100.00
17635;BME280;8936;49.010;12.120;2023-01-29T07:22:23;98954.28;;;2.30;100.00
17635;BME280;8936;49.010;12.120;2023-01-29T07:24:49;98947.66;;;2.34;100.00
17635;BME280;8936;49.010;12.120;2023-01-29T07:27:17;98952.72;;;2.36;100.00
17635;BME280;8936;49.010;12.120;2023-01-29T07:29:43;98954.13;;;2.32;100.00
17635;BME280;8936;49.010;12.120;2023-01-29T07:32:10;98939.41;;;2.23;100.00
17635;BME280;8936;49.010;12.120;2023-01-29T07:34:36;98937.28;;;2.33;100.00
17635;BME280;8936;49.010;12.120;2023-01-29T07:37:02;98945.41;;;2.31;100.00
17635;BME280;8936;49.010;12.120;2023-01-29T07:39:30;98954.91;;;2.32;100.00
17635;BME280;8936;49.010;12.120;2023-01-29T07:41:56;98957.31;;;2.12;100.00
17635;BME280;8936;49.010;12.120;2023-01-29T07:44:24;98951.50;;;2.32;100.00
17635;BME280;8936;49.010;12.120;2023-01-29T07:46:50;98959.53;;;2.45;100.00
17635;BME280;8936;49.010;12.120;2023-01-29T07:49:17;98949.09;;;2.37;100.00
17635;BME280;8936;49.010;12.120;2023-01-29T07:51:43;98957.25;;;2.42;100.00
17635;BME280;8936;49.010;12.120;2023-01-29T07:54:09;98958.31;;;2.11;100.00
17635;BME280;8936;49.010;12.120;2023-01-29T07:56:36;98953.69;;;1.99;100.00
17635;BME280;8936;49.010;12.120;2023-01-29T07:59:02;98960.31;;;1.80;100.00
17635;BME280;8936;49.010;12.120;2023-01-29T08:01:30;98957.69;;;1.66;100.00
17635;BME280;8936;49.010;12.120;2023-01-29T08:03:56;98963.34;;;1.92;100.00
17635;BME280;8936;49.010;12.120;2023-01-29T08:06:23;98958.16;;;1.84;100.00
17635;BME280;8936;49.010;12.120;2023-01-29T08:08:49;98959.44;;;1.88;100.00
17635;BME280;8936;49.010;12.120;2023-01-29T08:11:16;98980.25;;;1.97;100.00
17635;BME280;8936;49.010;12.120;2023-01-29T08:13:42;98986.84;;;2.08;100.00
17635;BME280;8936;49.010;12.120;2023-01-29T08:16:09;98988.47;;;2.24;100.00
17635;BME280;8936;49.010;12.120;2023-01-29T08:18:37;98998.13;;;2.31;100.00
17635;BME280;8936;49.010;12.120;2023-01-29T08:21:06;98996.09;;;2.33;100.00
17635;BME280;8936;49.010;12.120;2023-01-29T08:23:32;98996.13;;;2.18;100.00
17635;BME280;8936;49.010;12.120;2023-01-29T08:26:00;98992.38;;;2.28;100.00
17635;BME280;8936;49.010;12.120;2023-01-29T08:28:27;98995.91;;;2.20;100.00
17635;BME280;8936;49.010;12.120;2023-01-29T08:30:53;98993.84;;;2.30;100.00
17635;BME280;8936;49.010;12.120;2023-01-29T08:33:20;98992.13;;;2.08;100.00
17635;BME280;8936;49.010;12.120;2023-01-29T08:35:48;98993.03;;;2.00;100.00
17635;BME280;8936;49.010;12.120;2023-01-29T08:38:15;99002.28;;;2.11;100.00
17635;BME280;8936;49.010;12.120;2023-01-29T08:40:42;99006.91;;;1.65;100.00
17635;BME280;8936;49.010;12.120;2023-01-29T08:43:09;99009.94;;;1.91;100.00
17635;BME280;8936;49.010;12.120;2023-01-29T08:45:37;99010.81;;;1.69;100.00
17635;BME280;8936;49.010;12.120;2023-01-29T08:48:04;99006.19;;;1.71;100.00
17635;BME280;8936;49.010;12.120;2023-01-29T08:50:30;99014.78;;;1.50;100.00
17635;BME280;8936;49.010;12.120;2023-01-29T08:53:00;99013.13;;;1.49;100.00
17635;BME280;8936;49.010;12.120;2023-01-29T08:55:27;99021.81;;;1.87;100.00
17635;BME280;8936;49.010;12.120;2023-01-29T08:57:53;99017.47;;;1.94;100.00
17635;BME280;8936;49.010;12.120;2023-01-29T09:00:21;99033.38;;;2.01;100.00
17635;BME280;8936;49.010;12.120;2023-01-29T09:02:48;99027.38;;;2.22;100.00
17635;BME280;8936;49.010;12.120;2023-01-29T09:05:14;99034.53;;;1.84;100.00
17635;BME280;8936;49.010;12.120;2023-01-29T09:07:40;99045.03;;;1.54;100.00
17635;BME280;8936;49.010;12.120;2023-01-29T09:10:09;99047.13;;;1.59;100.00
17635;BME280;8936;49.010;12.120;2023-01-29T09:12:36;99038.47;;;1.88;100.00
17635;BME280;8936;49.010;12.120;2023-01-29T09:15:03;99034.38;;;2.00;100.00
17635;BME280;8936;49.010;12.120;2023-01-29T09:17:29;99031.78;;;1.77;100.00
17635;BME280;8936;49.010;12.120;2023-01-29T09:19:55;99027.34;;;1.63;100.00
17635;BME280;8936;49.010;12.120;2023-01-29T09:22:22;99021.16;;;1.71;100.00
17635;BME280;8936;49.010;12.120;2023-01-29T09:24:49;99021.81;;;1.87;100.00
17635;BME280;8936;49.010;12.120;2023-01-29T09:27:16;99026.72;;;1.38;100.00
17635;BME280;8936;49.010;12.120;2023-01-29T09:29:43;99019.13;;;1.58;100.00
17635;BME280;8936;49.010;12.120;2023-01-29T09:32:09;99022.47;;;1.52;100.00
17635;BME280;8936;49.010;12.120;2023-01-29T09:34:35;99027.97;;;1.80;100.00
17635;BME280;8936;49.010;12.120;2023-01-29T09:37:02;99026.63;;;1.84;100.00
17635;BME280;8936;49.010;12.120;2023-01-29T09:39:28;99029.19;;;2.06;100.00
17635;BME280;8936;49.010;12.120;2023-01-29T09:41:55;99025.84;;;2.12;100.00
17635;BME280;8936;49.010;12.120;2023-01-29T09:44:29;99025.03;;;1.97;100.00
17635;BME280;8936;49.010;12.120;2023-01-29T09:46:59;99024.00;;;1.84;100.00
17635;BME280;8936;49.010;12.120;2023-01-29T09:49:30;99022.53;;;2.10;100.00
17635;BME280;8936;49.010;12.120;2023-01-29T09:52:00;99020.00;;;2.17;100.00
17635;BME280;8936;49.010;12.120;2023-01-29T09:54:28;99006.19;;;2.30;100.00
17635;BME280;8936;49.010;12.120;2023-01-29T09:56:56;99011.88;;;2.48;100.00
17635;BME280;8936;49.010;12.120;2023-01-29T09:59:23;99003.88;;;2.56;100.00
17635;BME280;8936;49.010;12.120;2023-01-29T10:01:54;99001.47;;;2.25;100.00
17635;BME280;8936;49.010;12.120;2023-01-29T10:07:12;98992.63;;;2.33;100.00
17635;BME280;8936;49.010;12.120;2023-01-29T10:09:49;99000.38;;;2.34;100.00
17635;BME280;8936;49.010;12.120;2023-01-29T10:12:22;98990.28;;;2.23;100.00
17635;BME280;8936;49.010;12.120;2023-01-29T10:14:55;98987.53;;;2.46;100.00
17635;BME280;8936;49.010;12.120;2023-01-29T10:17:29;98982.88;;;2.48;100.00
17635;BME280;8936;49.010;12.120;2023-01-29T10:20:03;98977.63;;;2.48;100.00
17635;BME280;8936;49.010;12.120;2023-01-29T10:22:43;98981.59;;;2.58;100.00
17635;BME280;8936;49.010;12.120;2023-01-29T10:25:12;98983.19;;;2.74;100.00
17635;BME280;8936;49.010;12.120;2023-01-29T10:27:40;98982.16;;;2.54;100.00
17635;BME280;8936;49.010;12.120;2023-01-29T10:30:18;98978.25;;;2.50;100.00
17635;BME280;8936;49.010;12.120;2023-01-29T10:32:47;98975.44;;;2.51;100.00
17635;BME280;8936;49.010;12.120;2023-01-29T10:35:16;98981.47;;;2.31;100.00
17635;BME280;8936;49.010;12.120;2023-01-29T10:37:45;98982.31;;;1.87;100.00
17635;BME280;8936;49.010;12.120;2023-01-29T10:40:17;98978.97;;;1.79;100.00
17635;BME280;8936;49.010;12.120;2023-01-29T10:42:44;98968.69;;;1.84;100.00
17635;BME280;8936;49.010;12.120;2023-01-29T10:45:15;98968.00;;;1.38;100.00
17635;BME280;8936;49.010;12.120;2023-01-29T10:50:44;98960.94;;;1.38;100.00
17635;BME280;8936;49.010;12.120;2023-01-29T10:53:16;98961.63;;;1.70;100.00
17635;BME280;8936;49.010;12.120;2023-01-29T10:55:46;98958.16;;;2.13;100.00
17635;BME280;8936;49.010;12.120;2023-01-29T10:58:18;98958.41;;;2.18;100.00
17635;BME280;8936;49.010;12.120;2023-01-29T11:00:48;98955.94;;;2.31;100.00
17635;BME280;8936;49.010;12.120;2023-01-29T11:03:16;98943.34;;;1.97;100.00
17635;BME280;8936;49.010;12.120;2023-01-29T11:05:46;98940.00;;;1.59;100.00
17635;BME280;8936;49.010;12.120;2023-01-29T11:08:17;98928.63;;;1.30;100.00
17635;BME280;8936;49.010;12.120;2023-01-29T11:10:47;98921.50;;;1.16;100.00
17635;BME280;8936;49.010;12.120;2023-01-29T11:13:17;98918.88;;;1.30;100.00
17635;BME280;8936;49.010;12.120;2023-01-29T11:15:44;98919.91;;;1.44;100.00
17635;BME280;8936;49.010;12.120;2023-01-29T11:18:11;98913.03;;;1.57;100.00
17635;BME280;8936;49.010;12.120;2023-01-29T11:20:40;98918.72;;;1.61;100.00
17635;BME280;8936;49.010;12.120;2023-01-29T11:23:17;98914.59;;;1.67;100.00
17635;BME280;8936;49.010;12.120;2023-01-29T11:25:50;98920.44;;;2.12;100.00
17635;BME280;8936;49.010;12.120;2023-01-29T11:28:24;98914.47;;;2.40;100.00
17635;BME280;8936;49.010;12.120;2023-01-29T11:31:00;98918.72;;;2.20;100.00
17635;BME280;8936;49.010;12.120;2023-01-29T11:33:27;98914.88;;;2.07;100.00
17635;BME280;8936;49.010;12.120;2023-01-29T11:35:53;98927.56;;;2.33;100.00
17635;BME280;8936;49.010;12.120;2023-01-29T11:38:23;98918.19;;;1.95;100.00
17635;BME280;8936;49.010;12.120;2023-01-29T11:40:50;98916.72;;;1.92;100.00
17635;BME280;8936;49.010;12.120;2023-01-29T11:43:18;98918.59;;;2.28;100.00
17635;BME280;8936;49.010;12.120;2023-01-29T11:45:45;98913.91;;;2.08;100.00
17635;BME280;8936;49.010;12.120;2023-01-29T11:48:13;98902.63;;;2.14;100.00
17635;BME280;8936;49.010;12.120;2023-01-29T11:50:40;98890.66;;;1.97;100.00
17635;BME280;8936;49.010;12.120;2023-01-29T11:53:16;98887.69;;;1.71;100.00
17635;BME280;8936;49.010;12.120;2023-01-29T11:55:48;98891.22;;;1.78;100.00
17635;BME280;8936;49.010;12.120;2023-01-29T11:58:16;98878.00;;;2.07;100.00
17635;BME280;8936;49.010;12.120;2023-01-29T12:00:44;98871.66;;;2.38;100.00
17635;BME280;8936;49.010;12.120;2023-01-29T12:03:12;98864.63;;;2.45;100.00
17635;BME280;8936;49.010;12.120;2023-01-29T12:05:40;98866.31;;;1.95;100.00
17635;BME280;8936;49.010;12.120;2023-01-29T12:08:17;98864.59;;;2.24;100.00
17635;BME280;8936;49.010;12.120;2023-01-29T12:10:46;98854.78;;;2.53;100.00
17635;BME280;8936;49.010;12.120;2023-01-29T12:13:20;98848.00;;;2.65;100.00
17635;BME280;8936;49.010;12.120;2023-01-29T12:15:50;98836.16;;;2.83;100.00
17635;BME280;8936;49.010;12.120;2023-01-29T12:18:30;98836.53;;;2.80;100.00
17635;BME280;8936;49.010;12.120;2023-01-29T12:21:01;98829.78;;;2.98;100.00
17635;BME280;8936;49.010;12.120;2023-01-29T12:23:30;98837.53;;;2.79;100.00
17635;BME280;8936;49.010;12.120;2023-01-29T12:25:59;98841.25;;;2.84;100.00
17635;BME280;8936;49.010;12.120;2023-01-29T12:28:33;98833.97;;;2.86;100.00
17635;BME280;8936;49.010;12.120;2023-01-29T12:31:06;98831.09;;;2.81;100.00
17635;BME280;8936;49.010;12.120;2023-01-29T12:33:37;98819.00;;;2.93;100.00
17635;BME280;8936;49.010;12.120;2023-01-29T12:36:06;98817.91;;;3.09;100.00
17635;BME280;8936;49.010;12.120;2023-01-29T12:38:35;98821.09;;;2.77;100.00
17635;BME280;8936;49.010;12.120;2023-01-29T12:41:04;98823.94;;;2.54;100.00
17635;BME280;8936;49.010;12.120;2023-01-29T12:43:34;98824.88;;;2.67;100.00
17635;BME280;8936;49.010;12.120;2023-01-29T12:46:02;98820.75;;;2.86;100.00
17635;BME280;8936;49.010;12.120;2023-01-29T12:48:32;98813.66;;;2.87;100.00
17635;BME280;8936;49.010;12.120;2023-01-29T12:51:02;98813.56;;;3.01;100.00
17635;BME280;8936;49.010;12.120;2023-01-29T12:53:31;98816.41;;;2.72;100.00
17635;BME280;8936;49.010;12.120;2023-01-29T12:56:01;98806.69;;;2.51;100.00
17635;BME280;8936;49.010;12.120;2023-01-29T12:58:30;98803.63;;;2.76;100.00
17635;BME280;8936;49.010;12.120;2023-01-29T13:00:59;98795.38;;;2.85;100.00
17635;BME280;8936;49.010;12.120;2023-01-29T13:03:28;98792.75;;;2.85;100.00
17635;BME280;8936;49.010;12.120;2023-01-29T13:05:58;98787.69;;;2.84;100.00
17635;BME280;8936;49.010;12.120;2023-01-29T13:08:26;98780.84;;;2.96;100.00
17635;BME280;8936;49.010;12.120;2023-01-29T13:10:55;98784.88;;;2.92;100.00
17635;BME280;8936;49.010;12.120;2023-01-29T13:13:23;98795.72;;;2.76;100.00
17635;BME280;8936;49.010;12.120;2023-01-29T13:15:52;98789.34;;;2.91;100.00